Nearby METAR Reports

 

KPSC - Pasco, Washington, USA
Distance from station: NE 7mi, 11km
Updated: Wed, 14-Apr-2021 9:53am PDT
Clear
Clear
 Wind from ENE
Wind: ENE 22 mph , 35 km/h, Gust: 31 mph , 50 km/h
Temperature: 55°F , 13°C
Dew Point: 19°F , -7°C
Humidity: 24%
Barometer: 30.16 inHg , 1021.3 hPa
Clouds: Clear
Visibility: 10 miles , 16 km
2021/04/14 16:53 KPSC 141653Z 06019G27KT 10SM CLR 13/M07 A3016 RMK AO2 PK WND 06028/1617 SLP213 T01331072
KRLD - Richland, Washington, USA
Distance from station: NNW 7mi, 12km
Updated: Wed, 14-Apr-2021 10:15am PDT
Clear
Clear
 Wind from NNE
Wind: NNE 18 mph , 30 km/h, Gust: 26 mph , 43 km/h
Temperature: 59°F , 15°C
Dew Point: 19°F , -7°C
Humidity: 21%
Barometer: 30.16 inHg , 1021.3 hPa
Clouds: Clear
Visibility: 10 miles , 16 km
2021/04/14 17:15 KRLD 141715Z AUTO 03016G23KT 10SM CLR 15/M07 A3016 RMK AO2 T01481072
 
KHRI - Hermiston, Oregon, USA
Distance from station: S 26mi, 42km
Updated: Wed, 14-Apr-2021 9:53am PDT
Clear
Clear
 Wind from ENE
Wind: ENE 18 mph , 30 km/h
Temperature: 54°F , 12°C
Dew Point: 19°F , -7°C
Humidity: 26%
Barometer: 30.14 inHg , 1020.7 hPa
Clouds: Clear
Visibility: 10 miles , 16 km
2021/04/14 16:53 KHRI 141653Z AUTO 06016KT 10SM CLR 12/M07 A3014 RMK AO2 SLP204 T01221067
K1S5 - Sunnyside, Washington, USA
Distance from station: WNW 36mi, 58km
Updated: Wed, 14-Apr-2021 10:15am PDT
Haze, Overcast
Haze, Overcast
 Wind from NNE
Wind: NNE 24 mph , 39 km/h, Gust: 32 mph , 52 km/h
Temperature: 55°F , 13°C
Dew Point: 19°F , -7°C
Humidity: 24%
Barometer: 30.17 inHg , 1021.7 hPa
Summary: Haze
Clouds: Overcast
Visibility: 1/2 mile , 0.8 km
Cloud details: Overcast 500 ft
2021/04/14 17:15 K1S5 141715Z AUTO 02021G28KT 1/2SM HZ VV005 13/M07 A3017 RMK AO2 VIS M1/4V5 T01331073
 
KPDT - Pendleton, Oregon, USA
Distance from station: SSE 40mi, 64km
Updated: Wed, 14-Apr-2021 9:53am PDT
Clear
Clear
 Wind from varies
Wind: varies 3 mph , 6 km/h
Temperature: 46°F , 8°C
Dew Point: 18°F , -8°C
Humidity: 32%
Barometer: 30.10 inHg , 1019.3 hPa
Clouds: Clear
Visibility: 10 miles , 16 km
2021/04/14 16:53 KPDT 141653Z VRB03KT 10SM CLR 08/M08 A3010 RMK AO2 SLP194 T00781078
KALW - Walla Walla, Washington, USA
Distance from station: E 46mi, 74km
Updated: Wed, 14-Apr-2021 9:53am PDT
Clear
Clear
 
Temperature: 46°F , 8°C
Dew Point: 19°F , -7°C
Humidity: 34%
Barometer: 30.09 inHg , 1019 hPa
Clouds: Clear
Visibility: 10 miles , 16 km
2021/04/14 16:53 KALW 141653Z 10SM CLR 08/M07 A3009 RMK AO2 SLP196 T00781072